sensor_id;sensor_type;location;lat;lon;timestamp;P1;durP1;ratioP1;P2;durP2;ratioP2
48199;SDS011;33990;44.602;10.976;2022-08-19T00:02:14;4.57;;;3.03;;
48199;SDS011;33990;44.602;10.976;2022-08-19T00:04:42;4.25;;;2.78;;
48199;SDS011;33990;44.602;10.976;2022-08-19T00:07:09;5.53;;;3.53;;
48199;SDS011;33990;44.602;10.976;2022-08-19T00:09:36;5.25;;;3.08;;
48199;SDS011;33990;44.602;10.976;2022-08-19T00:12:04;6.45;;;3.00;;
48199;SDS011;33990;44.602;10.976;2022-08-19T00:14:31;6.43;;;3.15;;
48199;SDS011;33990;44.602;10.976;2022-08-19T00:16:59;4.57;;;3.03;;
48199;SDS011;33990;44.602;10.976;2022-08-19T00:19:28;4.82;;;2.72;;
48199;SDS011;33990;44.602;10.976;2022-08-19T00:21:55;4.35;;;2.55;;
48199;SDS011;33990;44.602;10.976;2022-08-19T00:24:23;5.60;;;2.80;;
48199;SDS011;33990;44.602;10.976;2022-08-19T00:26:51;5.10;;;2.60;;
48199;SDS011;33990;44.602;10.976;2022-08-19T00:29:19;4.07;;;2.58;;
48199;SDS011;33990;44.602;10.976;2022-08-19T00:31:47;5.68;;;2.40;;
48199;SDS011;33990;44.602;10.976;2022-08-19T00:34:16;6.43;;;3.08;;
48199;SDS011;33990;44.602;10.976;2022-08-19T00:36:44;4.43;;;2.78;;
48199;SDS011;33990;44.602;10.976;2022-08-19T00:39:12;3.70;;;2.70;;
48199;SDS011;33990;44.602;10.976;2022-08-19T00:41:41;3.55;;;2.60;;
48199;SDS011;33990;44.602;10.976;2022-08-19T00:44:12;4.97;;;2.42;;
48199;SDS011;33990;44.602;10.976;2022-08-19T00:46:43;4.53;;;2.83;;
48199;SDS011;33990;44.602;10.976;2022-08-19T00:49:25;4.63;;;2.33;;
48199;SDS011;33990;44.602;10.976;2022-08-19T00:51:59;4.32;;;2.50;;
48199;SDS011;33990;44.602;10.976;2022-08-19T00:57:09;4.38;;;2.40;;
48199;SDS011;33990;44.602;10.976;2022-08-19T00:59:42;5.32;;;2.78;;
48199;SDS011;33990;44.602;10.976;2022-08-19T01:02:28;6.97;;;2.35;;
48199;SDS011;33990;44.602;10.976;2022-08-19T01:04:58;4.60;;;2.90;;
48199;SDS011;33990;44.602;10.976;2022-08-19T01:07:27;8.90;;;2.72;;
48199;SDS011;33990;44.602;10.976;2022-08-19T01:10:02;3.35;;;2.50;;
48199;SDS011;33990;44.602;10.976;2022-08-19T01:12:30;3.10;;;2.47;;
48199;SDS011;33990;44.602;10.976;2022-08-19T01:14:58;3.22;;;2.10;;
48199;SDS011;33990;44.602;10.976;2022-08-19T01:17:26;5.13;;;2.50;;
48199;SDS011;33990;44.602;10.976;2022-08-19T01:19:54;4.72;;;2.70;;
48199;SDS011;33990;44.602;10.976;2022-08-19T01:22:30;3.05;;;2.50;;
48199;SDS011;33990;44.602;10.976;2022-08-19T01:25:01;3.72;;;2.35;;
48199;SDS011;33990;44.602;10.976;2022-08-19T01:27:41;3.90;;;2.45;;
48199;SDS011;33990;44.602;10.976;2022-08-19T01:30:13;5.93;;;2.20;;
48199;SDS011;33990;44.602;10.976;2022-08-19T01:32:47;4.20;;;3.00;;
48199;SDS011;33990;44.602;10.976;2022-08-19T01:35:16;4.05;;;2.30;;
48199;SDS011;33990;44.602;10.976;2022-08-19T01:37:49;5.82;;;2.80;;
48199;SDS011;33990;44.602;10.976;2022-08-19T01:40:17;3.30;;;2.08;;
48199;SDS011;33990;44.602;10.976;2022-08-19T01:42:50;5.07;;;2.58;;
48199;SDS011;33990;44.602;10.976;2022-08-19T01:45:19;4.32;;;2.08;;
48199;SDS011;33990;44.602;10.976;2022-08-19T01:47:48;4.03;;;2.25;;
48199;SDS011;33990;44.602;10.976;2022-08-19T01:50:29;4.65;;;2.58;;
48199;SDS011;33990;44.602;10.976;2022-08-19T01:52:58;4.80;;;2.55;;
48199;SDS011;33990;44.602;10.976;2022-08-19T01:55:32;4.75;;;2.75;;
48199;SDS011;33990;44.602;10.976;2022-08-19T01:58:08;5.45;;;2.38;;
48199;SDS011;33990;44.602;10.976;2022-08-19T02:00:43;3.33;;;2.35;;
48199;SDS011;33990;44.602;10.976;2022-08-19T02:03:12;4.57;;;2.47;;
48199;SDS011;33990;44.602;10.976;2022-08-19T02:05:40;4.13;;;2.80;;
48199;SDS011;33990;44.602;10.976;2022-08-19T02:08:08;4.63;;;2.70;;
48199;SDS011;33990;44.602;10.976;2022-08-19T02:10:43;4.43;;;2.55;;
48199;SDS011;33990;44.602;10.976;2022-08-19T02:13:11;6.07;;;3.05;;
48199;SDS011;33990;44.602;10.976;2022-08-19T02:15:40;5.47;;;2.67;;
48199;SDS011;33990;44.602;10.976;2022-08-19T02:18:08;4.57;;;2.97;;
48199;SDS011;33990;44.602;10.976;2022-08-19T02:20:36;5.80;;;2.08;;
48199;SDS011;33990;44.602;10.976;2022-08-19T02:23:05;4.32;;;2.10;;
48199;SDS011;33990;44.602;10.976;2022-08-19T02:25:42;4.18;;;2.30;;
48199;SDS011;33990;44.602;10.976;2022-08-19T02:28:11;4.25;;;2.42;;
48199;SDS011;33990;44.602;10.976;2022-08-19T02:30:44;5.35;;;2.33;;
48199;SDS011;33990;44.602;10.976;2022-08-19T02:33:13;4.15;;;2.00;;
48199;SDS011;33990;44.602;10.976;2022-08-19T02:35:41;2.60;;;1.52;;
48199;SDS011;33990;44.602;10.976;2022-08-19T02:38:13;4.25;;;1.85;;
48199;SDS011;33990;44.602;10.976;2022-08-19T02:40:58;3.25;;;1.60;;
48199;SDS011;33990;44.602;10.976;2022-08-19T02:43:29;3.28;;;1.95;;
48199;SDS011;33990;44.602;10.976;2022-08-19T02:46:00;5.05;;;1.85;;
48199;SDS011;33990;44.602;10.976;2022-08-19T02:48:28;4.20;;;1.80;;
48199;SDS011;33990;44.602;10.976;2022-08-19T02:50:56;3.42;;;1.58;;
48199;SDS011;33990;44.602;10.976;2022-08-19T02:53:24;3.25;;;2.15;;
48199;SDS011;33990;44.602;10.976;2022-08-19T02:55:54;4.60;;;1.98;;
48199;SDS011;33990;44.602;10.976;2022-08-19T02:58:22;3.20;;;1.52;;
48199;SDS011;33990;44.602;10.976;2022-08-19T03:00:52;5.65;;;1.92;;
48199;SDS011;33990;44.602;10.976;2022-08-19T03:03:21;3.67;;;1.55;;
48199;SDS011;33990;44.602;10.976;2022-08-19T03:05:48;4.70;;;1.83;;
48199;SDS011;33990;44.602;10.976;2022-08-19T03:08:23;4.53;;;1.65;;
48199;SDS011;33990;44.602;10.976;2022-08-19T03:10:51;4.25;;;2.22;;
48199;SDS011;33990;44.602;10.976;2022-08-19T03:13:20;5.80;;;2.10;;
48199;SDS011;33990;44.602;10.976;2022-08-19T03:15:47;3.53;;;2.03;;
48199;SDS011;33990;44.602;10.976;2022-08-19T03:18:15;4.43;;;2.03;;
48199;SDS011;33990;44.602;10.976;2022-08-19T03:20:45;3.70;;;1.75;;
48199;SDS011;33990;44.602;10.976;2022-08-19T03:23:17;3.22;;;2.25;;
48199;SDS011;33990;44.602;10.976;2022-08-19T03:25:45;4.22;;;1.73;;
48199;SDS011;33990;44.602;10.976;2022-08-19T03:28:29;4.47;;;2.30;;
48199;SDS011;33990;44.602;10.976;2022-08-19T03:31:00;4.75;;;1.80;;
48199;SDS011;33990;44.602;10.976;2022-08-19T03:33:52;4.93;;;1.75;;
48199;SDS011;33990;44.602;10.976;2022-08-19T03:36:21;2.72;;;1.67;;
48199;SDS011;33990;44.602;10.976;2022-08-19T03:38:54;3.20;;;1.45;;
48199;SDS011;33990;44.602;10.976;2022-08-19T03:41:29;2.20;;;1.33;;
48199;SDS011;33990;44.602;10.976;2022-08-19T03:44:16;3.83;;;1.88;;
48199;SDS011;33990;44.602;10.976;2022-08-19T03:46:46;3.78;;;1.90;;
48199;SDS011;33990;44.602;10.976;2022-08-19T03:49:15;4.28;;;1.92;;
48199;SDS011;33990;44.602;10.976;2022-08-19T03:51:44;4.72;;;2.10;;
48199;SDS011;33990;44.602;10.976;2022-08-19T03:54:14;4.80;;;1.85;;
48199;SDS011;33990;44.602;10.976;2022-08-19T03:56:43;3.85;;;1.80;;
48199;SDS011;33990;44.602;10.976;2022-08-19T03:59:15;3.78;;;1.70;;
48199;SDS011;33990;44.602;10.976;2022-08-19T04:01:45;3.35;;;1.58;;
48199;SDS011;33990;44.602;10.976;2022-08-19T04:04:12;8.63;;;1.85;;
48199;SDS011;33990;44.602;10.976;2022-08-19T04:06:40;4.97;;;2.35;;
48199;SDS011;33990;44.602;10.976;2022-08-19T04:09:08;7.00;;;2.13;;
48199;SDS011;33990;44.602;10.976;2022-08-19T04:11:38;3.28;;;1.77;;
48199;SDS011;33990;44.602;10.976;2022-08-19T04:14:12;4.85;;;2.00;;
48199;SDS011;33990;44.602;10.976;2022-08-19T04:16:41;6.05;;;2.03;;
48199;SDS011;33990;44.602;10.976;2022-08-19T04:19:11;4.03;;;2.00;;
48199;SDS011;33990;44.602;10.976;2022-08-19T04:21:39;4.47;;;2.00;;
48199;SDS011;33990;44.602;10.976;2022-08-19T04:24:06;5.25;;;1.83;;
48199;SDS011;33990;44.602;10.976;2022-08-19T04:26:36;5.20;;;2.28;;
48199;SDS011;33990;44.602;10.976;2022-08-19T04:29:06;4.70;;;2.10;;
48199;SDS011;33990;44.602;10.976;2022-08-19T04:31:38;4.25;;;1.83;;
48199;SDS011;33990;44.602;10.976;2022-08-19T04:34:08;3.03;;;1.67;;
48199;SDS011;33990;44.602;10.976;2022-08-19T04:36:38;7.85;;;2.17;;
48199;SDS011;33990;44.602;10.976;2022-08-19T04:39:09;4.20;;;2.30;;
48199;SDS011;33990;44.602;10.976;2022-08-19T04:41:39;4.13;;;2.30;;
48199;SDS011;33990;44.602;10.976;2022-08-19T04:44:25;3.30;;;1.67;;
48199;SDS011;33990;44.602;10.976;2022-08-19T04:46:53;5.65;;;2.08;;
48199;SDS011;33990;44.602;10.976;2022-08-19T04:49:21;3.78;;;1.75;;
48199;SDS011;33990;44.602;10.976;2022-08-19T04:51:50;5.25;;;2.00;;
48199;SDS011;33990;44.602;10.976;2022-08-19T04:54:21;3.65;;;1.77;;
48199;SDS011;33990;44.602;10.976;2022-08-19T04:57:06;5.47;;;1.75;;
48199;SDS011;33990;44.602;10.976;2022-08-19T04:59:37;4.20;;;1.97;;
48199;SDS011;33990;44.602;10.976;2022-08-19T05:02:06;5.30;;;2.05;;
48199;SDS011;33990;44.602;10.976;2022-08-19T05:04:35;6.20;;;2.17;;
48199;SDS011;33990;44.602;10.976;2022-08-19T05:07:09;5.30;;;2.47;;
48199;SDS011;33990;44.602;10.976;2022-08-19T05:09:36;6.95;;;2.35;;
48199;SDS011;33990;44.602;10.976;2022-08-19T05:12:24;5.53;;;2.50;;
48199;SDS011;33990;44.602;10.976;2022-08-19T05:14:55;6.60;;;2.17;;
48199;SDS011;33990;44.602;10.976;2022-08-19T05:17:24;5.35;;;2.40;;
48199;SDS011;33990;44.602;10.976;2022-08-19T05:19:56;5.07;;;2.03;;
48199;SDS011;33990;44.602;10.976;2022-08-19T05:22:43;6.15;;;2.53;;
48199;SDS011;33990;44.602;10.976;2022-08-19T05:25:15;6.35;;;2.60;;
48199;SDS011;33990;44.602;10.976;2022-08-19T05:27:47;6.88;;;2.05;;
48199;SDS011;33990;44.602;10.976;2022-08-19T05:30:15;4.53;;;2.03;;
48199;SDS011;33990;44.602;10.976;2022-08-19T05:32:44;4.55;;;2.15;;
48199;SDS011;33990;44.602;10.976;2022-08-19T05:35:11;7.05;;;2.35;;
48199;SDS011;33990;44.602;10.976;2022-08-19T05:37:39;4.13;;;1.70;;
48199;SDS011;33990;44.602;10.976;2022-08-19T05:40:07;4.72;;;2.05;;
48199;SDS011;33990;44.602;10.976;2022-08-19T05:45:22;3.80;;;1.50;;
48199;SDS011;33990;44.602;10.976;2022-08-19T05:47:50;4.70;;;1.75;;
48199;SDS011;33990;44.602;10.976;2022-08-19T05:50:17;2.65;;;1.38;;
48199;SDS011;33990;44.602;10.976;2022-08-19T05:52:44;2.65;;;1.50;;
48199;SDS011;33990;44.602;10.976;2022-08-19T05:55:16;3.05;;;1.70;;
48199;SDS011;33990;44.602;10.976;2022-08-19T05:57:47;3.08;;;1.52;;
48199;SDS011;33990;44.602;10.976;2022-08-19T06:00:14;4.63;;;1.52;;
48199;SDS011;33990;44.602;10.976;2022-08-19T06:02:48;5.20;;;2.10;;
48199;SDS011;33990;44.602;10.976;2022-08-19T06:05:18;6.40;;;1.70;;
48199;SDS011;33990;44.602;10.976;2022-08-19T06:07:46;3.25;;;1.60;;
48199;SDS011;33990;44.602;10.976;2022-08-19T06:10:14;5.05;;;1.95;;
48199;SDS011;33990;44.602;10.976;2022-08-19T06:12:41;2.70;;;1.30;;
48199;SDS011;33990;44.602;10.976;2022-08-19T06:15:10;3.35;;;1.80;;
48199;SDS011;33990;44.602;10.976;2022-08-19T06:17:40;4.88;;;1.83;;
48199;SDS011;33990;44.602;10.976;2022-08-19T06:20:09;5.35;;;1.70;;
48199;SDS011;33990;44.602;10.976;2022-08-19T06:22:40;3.05;;;1.58;;
48199;SDS011;33990;44.602;10.976;2022-08-19T06:25:11;5.85;;;2.20;;
48199;SDS011;33990;44.602;10.976;2022-08-19T06:27:41;2.83;;;1.60;;
48199;SDS011;33990;44.602;10.976;2022-08-19T06:30:28;5.05;;;1.85;;
48199;SDS011;33990;44.602;10.976;2022-08-19T06:32:56;3.83;;;1.60;;
48199;SDS011;33990;44.602;10.976;2022-08-19T06:35:23;2.78;;;1.33;;
48199;SDS011;33990;44.602;10.976;2022-08-19T06:37:52;3.60;;;1.63;;
48199;SDS011;33990;44.602;10.976;2022-08-19T06:40:19;3.08;;;1.83;;
48199;SDS011;33990;44.602;10.976;2022-08-19T06:42:47;5.55;;;1.50;;
48199;SDS011;33990;44.602;10.976;2022-08-19T06:45:20;3.65;;;1.40;;
48199;SDS011;33990;44.602;10.976;2022-08-19T06:48:02;2.38;;;1.23;;
48199;SDS011;33990;44.602;10.976;2022-08-19T06:50:29;4.00;;;1.63;;
48199;SDS011;33990;44.602;10.976;2022-08-19T06:52:56;3.65;;;1.45;;
48199;SDS011;33990;44.602;10.976;2022-08-19T06:55:29;3.13;;;1.50;;
48199;SDS011;33990;44.602;10.976;2022-08-19T06:58:01;2.92;;;1.13;;
48199;SDS011;33990;44.602;10.976;2022-08-19T07:00:30;3.75;;;1.70;;
48199;SDS011;33990;44.602;10.976;2022-08-19T07:02:58;2.97;;;1.30;;
48199;SDS011;33990;44.602;10.976;2022-08-19T07:05:37;3.58;;;1.35;;
48199;SDS011;33990;44.602;10.976;2022-08-19T07:08:11;1.80;;;1.20;;
48199;SDS011;33990;44.602;10.976;2022-08-19T07:10:42;5.13;;;1.83;;
48199;SDS011;33990;44.602;10.976;2022-08-19T07:13:10;2.63;;;1.10;;
48199;SDS011;33990;44.602;10.976;2022-08-19T07:15:38;2.25;;;1.10;;
48199;SDS011;33990;44.602;10.976;2022-08-19T07:18:05;2.10;;;1.20;;
48199;SDS011;33990;44.602;10.976;2022-08-19T07:20:38;2.45;;;1.35;;
48199;SDS011;33990;44.602;10.976;2022-08-19T07:23:08;2.47;;;1.02;;
48199;SDS011;33990;44.602;10.976;2022-08-19T07:25:42;4.38;;;1.40;;
48199;SDS011;33990;44.602;10.976;2022-08-19T07:28:10;2.22;;;1.20;;
48199;SDS011;33990;44.602;10.976;2022-08-19T07:30:50;2.35;;;0.98;;
48199;SDS011;33990;44.602;10.976;2022-08-19T07:33:18;2.72;;;1.15;;
48199;SDS011;33990;44.602;10.976;2022-08-19T07:35:46;2.85;;;1.27;;
48199;SDS011;33990;44.602;10.976;2022-08-19T07:38:14;2.08;;;1.00;;
48199;SDS011;33990;44.602;10.976;2022-08-19T07:40:43;1.85;;;0.90;;
48199;SDS011;33990;44.602;10.976;2022-08-19T07:43:12;2.00;;;1.10;;
48199;SDS011;33990;44.602;10.976;2022-08-19T07:45:44;2.22;;;1.00;;
48199;SDS011;33990;44.602;10.976;2022-08-19T07:48:11;2.88;;;1.10;;
48199;SDS011;33990;44.602;10.976;2022-08-19T07:50:39;1.42;;;0.90;;
48199;SDS011;33990;44.602;10.976;2022-08-19T07:53:07;2.55;;;1.38;;
48199;SDS011;33990;44.602;10.976;2022-08-19T07:55:34;1.70;;;1.27;;
48199;SDS011;33990;44.602;10.976;2022-08-19T07:58:09;1.60;;;1.00;;
48199;SDS011;33990;44.602;10.976;2022-08-19T08:00:42;2.00;;;1.23;;
48199;SDS011;33990;44.602;10.976;2022-08-19T08:03:11;2.00;;;1.17;;
48199;SDS011;33990;44.602;10.976;2022-08-19T08:05:39;2.47;;;1.13;;
48199;SDS011;33990;44.602;10.976;2022-08-19T08:08:26;3.25;;;1.10;;
48199;SDS011;33990;44.602;10.976;2022-08-19T08:11:17;2.63;;;1.10;;
48199;SDS011;33990;44.602;10.976;2022-08-19T08:13:47;1.77;;;1.00;;
48199;SDS011;33990;44.602;10.976;2022-08-19T08:16:33;1.95;;;0.98;;
48199;SDS011;33990;44.602;10.976;2022-08-19T08:19:05;1.60;;;1.00;;
48199;SDS011;33990;44.602;10.976;2022-08-19T08:21:49;1.50;;;0.90;;
48199;SDS011;33990;44.602;10.976;2022-08-19T08:24:18;5.00;;;1.42;;
48199;SDS011;33990;44.602;10.976;2022-08-19T08:26:45;2.28;;;1.10;;
48199;SDS011;33990;44.602;10.976;2022-08-19T08:29:22;1.98;;;1.15;;
48199;SDS011;33990;44.602;10.976;2022-08-19T08:31:51;3.20;;;1.33;;
48199;SDS011;33990;44.602;10.976;2022-08-19T08:34:26;2.53;;;1.45;;
48199;SDS011;33990;44.602;10.976;2022-08-19T08:36:53;4.82;;;1.48;;
48199;SDS011;33990;44.602;10.976;2022-08-19T08:39:20;2.13;;;1.20;;
48199;SDS011;33990;44.602;10.976;2022-08-19T08:41:53;3.00;;;1.13;;
48199;SDS011;33990;44.602;10.976;2022-08-19T08:44:46;3.55;;;1.33;;
48199;SDS011;33990;44.602;10.976;2022-08-19T08:47:18;3.45;;;1.70;;
48199;SDS011;33990;44.602;10.976;2022-08-19T08:55:00;3.92;;;1.20;;
48199;SDS011;33990;44.602;10.976;2022-08-19T08:57:39;3.30;;;1.40;;
48199;SDS011;33990;44.602;10.976;2022-08-19T09:00:20;4.80;;;1.70;;
48199;SDS011;33990;44.602;10.976;2022-08-19T09:02:51;8.55;;;1.85;;
48199;SDS011;33990;44.602;10.976;2022-08-19T09:05:20;4.22;;;1.63;;
48199;SDS011;33990;44.602;10.976;2022-08-19T09:08:07;3.55;;;1.50;;
48199;SDS011;33990;44.602;10.976;2022-08-19T09:10:43;3.10;;;1.42;;
48199;SDS011;33990;44.602;10.976;2022-08-19T09:16:18;4.75;;;1.60;;
48199;SDS011;33990;44.602;10.976;2022-08-19T09:18:56;4.00;;;1.50;;
48199;SDS011;33990;44.602;10.976;2022-08-19T09:21:25;3.00;;;1.23;;
48199;SDS011;33990;44.602;10.976;2022-08-19T09:24:00;3.30;;;1.92;;
48199;SDS011;33990;44.602;10.976;2022-08-19T09:26:30;2.88;;;1.70;;
48199;SDS011;33990;44.602;10.976;2022-08-19T09:29:18;2.83;;;1.52;;
48199;SDS011;33990;44.602;10.976;2022-08-19T09:31:48;4.10;;;1.27;;
48199;SDS011;33990;44.602;10.976;2022-08-19T09:34:17;4.20;;;1.90;;
48199;SDS011;33990;44.602;10.976;2022-08-19T09:36:48;6.03;;;1.27;;
48199;SDS011;33990;44.602;10.976;2022-08-19T09:39:22;4.47;;;1.58;;
48199;SDS011;33990;44.602;10.976;2022-08-19T09:41:49;3.22;;;1.40;;
48199;SDS011;33990;44.602;10.976;2022-08-19T09:44:17;2.55;;;1.30;;
48199;SDS011;33990;44.602;10.976;2022-08-19T09:46:46;2.47;;;1.27;;
48199;SDS011;33990;44.602;10.976;2022-08-19T09:49:18;3.70;;;1.20;;
48199;SDS011;33990;44.602;10.976;2022-08-19T09:51:50;4.25;;;1.45;;
48199;SDS011;33990;44.602;10.976;2022-08-19T09:54:22;3.07;;;1.30;;
48199;SDS011;33990;44.602;10.976;2022-08-19T09:56:51;2.63;;;1.38;;
48199;SDS011;33990;44.602;10.976;2022-08-19T09:59:21;3.10;;;1.30;;
48199;SDS011;33990;44.602;10.976;2022-08-19T10:01:49;3.65;;;1.17;;
48199;SDS011;33990;44.602;10.976;2022-08-19T10:04:18;4.63;;;1.65;;
48199;SDS011;33990;44.602;10.976;2022-08-19T10:06:49;7.55;;;1.55;;
48199;SDS011;33990;44.602;10.976;2022-08-19T10:09:21;2.72;;;1.40;;
48199;SDS011;33990;44.602;10.976;2022-08-19T10:12:00;2.95;;;1.55;;
48199;SDS011;33990;44.602;10.976;2022-08-19T10:14:29;2.30;;;1.27;;
48199;SDS011;33990;44.602;10.976;2022-08-19T10:16:57;3.28;;;1.35;;
48199;SDS011;33990;44.602;10.976;2022-08-19T10:22:03;3.08;;;1.38;;
48199;SDS011;33990;44.602;10.976;2022-08-19T10:24:38;3.47;;;1.40;;
48199;SDS011;33990;44.602;10.976;2022-08-19T10:27:07;2.90;;;1.55;;
48199;SDS011;33990;44.602;10.976;2022-08-19T10:29:36;2.53;;;1.10;;
48199;SDS011;33990;44.602;10.976;2022-08-19T10:32:12;3.50;;;1.45;;
48199;SDS011;33990;44.602;10.976;2022-08-19T10:34:40;2.97;;;1.15;;
48199;SDS011;33990;44.602;10.976;2022-08-19T10:37:15;4.85;;;1.27;;
48199;SDS011;33990;44.602;10.976;2022-08-19T10:39:57;2.22;;;1.00;;
48199;SDS011;33990;44.602;10.976;2022-08-19T10:42:24;2.20;;;1.52;;
48199;SDS011;33990;44.602;10.976;2022-08-19T10:44:52;3.00;;;1.30;;
48199;SDS011;33990;44.602;10.976;2022-08-19T10:47:19;3.97;;;1.20;;
48199;SDS011;33990;44.602;10.976;2022-08-19T10:49:52;2.38;;;1.40;;
48199;SDS011;33990;44.602;10.976;2022-08-19T10:52:40;3.97;;;1.38;;
48199;SDS011;33990;44.602;10.976;2022-08-19T10:55:17;2.80;;;1.40;;
48199;SDS011;33990;44.602;10.976;2022-08-19T10:58:12;2.85;;;1.17;;
48199;SDS011;33990;44.602;10.976;2022-08-19T11:00:42;2.45;;;1.20;;
48199;SDS011;33990;44.602;10.976;2022-08-19T11:03:12;2.10;;;1.30;;
48199;SDS011;33990;44.602;10.976;2022-08-19T11:05:41;2.58;;;1.25;;
48199;SDS011;33990;44.602;10.976;2022-08-19T11:08:08;2.35;;;1.17;;
48199;SDS011;33990;44.602;10.976;2022-08-19T11:10:52;3.55;;;1.10;;
48199;SDS011;33990;44.602;10.976;2022-08-19T11:13:28;2.25;;;1.00;;
48199;SDS011;33990;44.602;10.976;2022-08-19T11:16:00;4.35;;;1.42;;
48199;SDS011;33990;44.602;10.976;2022-08-19T11:18:35;2.75;;;1.50;;
48199;SDS011;33990;44.602;10.976;2022-08-19T11:21:12;3.72;;;1.35;;
48199;SDS011;33990;44.602;10.976;2022-08-19T11:23:51;2.03;;;1.33;;
48199;SDS011;33990;44.602;10.976;2022-08-19T11:26:21;1.95;;;1.20;;
48199;SDS011;33990;44.602;10.976;2022-08-19T11:28:50;2.63;;;1.45;;
48199;SDS011;33990;44.602;10.976;2022-08-19T11:31:21;1.63;;;1.00;;
48199;SDS011;33990;44.602;10.976;2022-08-19T11:33:58;3.28;;;1.10;;
48199;SDS011;33990;44.602;10.976;2022-08-19T11:36:28;2.85;;;1.10;;
48199;SDS011;33990;44.602;10.976;2022-08-19T11:38:58;3.00;;;1.10;;
48199;SDS011;33990;44.602;10.976;2022-08-19T11:41:25;2.72;;;1.33;;
48199;SDS011;33990;44.602;10.976;2022-08-19T11:43:53;4.10;;;1.10;;
48199;SDS011;33990;44.602;10.976;2022-08-19T11:46:23;1.98;;;1.00;;
48199;SDS011;33990;44.602;10.976;2022-08-19T11:48:51;2.58;;;1.23;;
48199;SDS011;33990;44.602;10.976;2022-08-19T11:51:20;2.70;;;1.35;;
48199;SDS011;33990;44.602;10.976;2022-08-19T11:53:52;2.95;;;1.10;;
48199;SDS011;33990;44.602;10.976;2022-08-19T11:56:21;1.50;;;1.00;;
48199;SDS011;33990;44.602;10.976;2022-08-19T11:58:49;2.08;;;1.05;;
48199;SDS011;33990;44.602;10.976;2022-08-19T12:01:17;2.35;;;1.20;;
48199;SDS011;33990;44.602;10.976;2022-08-19T12:03:47;1.77;;;1.00;;
48199;SDS011;33990;44.602;10.976;2022-08-19T12:06:17;3.97;;;1.33;;
48199;SDS011;33990;44.602;10.976;2022-08-19T12:08:56;2.78;;;1.30;;
48199;SDS011;33990;44.602;10.976;2022-08-19T12:11:25;2.92;;;1.27;;
48199;SDS011;33990;44.602;10.976;2022-08-19T12:13:52;2.15;;;1.20;;
48199;SDS011;33990;44.602;10.976;2022-08-19T12:16:23;2.42;;;1.13;;
48199;SDS011;33990;44.602;10.976;2022-08-19T12:18:55;3.22;;;1.30;;
48199;SDS011;33990;44.602;10.976;2022-08-19T12:21:24;1.90;;;1.27;;
48199;SDS011;33990;44.602;10.976;2022-08-19T12:23:56;3.08;;;1.25;;
48199;SDS011;33990;44.602;10.976;2022-08-19T12:26:25;2.67;;;1.00;;
48199;SDS011;33990;44.602;10.976;2022-08-19T12:28:54;2.47;;;1.40;;
48199;SDS011;33990;44.602;10.976;2022-08-19T12:31:22;2.28;;;1.15;;
48199;SDS011;33990;44.602;10.976;2022-08-19T12:33:49;1.77;;;1.00;;
48199;SDS011;33990;44.602;10.976;2022-08-19T12:36:19;2.10;;;1.27;;
48199;SDS011;33990;44.602;10.976;2022-08-19T12:38:48;2.63;;;0.90;;
48199;SDS011;33990;44.602;10.976;2022-08-19T12:41:17;2.67;;;1.27;;
48199;SDS011;33990;44.602;10.976;2022-08-19T12:43:45;1.55;;;0.85;;
48199;SDS011;33990;44.602;10.976;2022-08-19T12:46:13;1.80;;;1.05;;
48199;SDS011;33990;44.602;10.976;2022-08-19T12:48:44;1.88;;;1.10;;
48199;SDS011;33990;44.602;10.976;2022-08-19T12:51:13;2.72;;;1.35;;
48199;SDS011;33990;44.602;10.976;2022-08-19T12:53:43;2.97;;;1.10;;
48199;SDS011;33990;44.602;10.976;2022-08-19T12:56:11;2.03;;;1.00;;
48199;SDS011;33990;44.602;10.976;2022-08-19T12:58:41;2.53;;;1.15;;
48199;SDS011;33990;44.602;10.976;2022-08-19T13:01:18;2.40;;;1.00;;
48199;SDS011;33990;44.602;10.976;2022-08-19T13:03:49;1.88;;;0.98;;
48199;SDS011;33990;44.602;10.976;2022-08-19T13:06:21;2.05;;;1.08;;
48199;SDS011;33990;44.602;10.976;2022-08-19T13:08:49;2.20;;;1.30;;
48199;SDS011;33990;44.602;10.976;2022-08-19T13:11:18;2.75;;;1.13;;
48199;SDS011;33990;44.602;10.976;2022-08-19T13:13:48;1.70;;;1.20;;
48199;SDS011;33990;44.602;10.976;2022-08-19T13:16:17;2.13;;;1.25;;
48199;SDS011;33990;44.602;10.976;2022-08-19T13:18:47;2.92;;;1.05;;
48199;SDS011;33990;44.602;10.976;2022-08-19T13:21:16;2.55;;;1.17;;
48199;SDS011;33990;44.602;10.976;2022-08-19T13:23:46;2.80;;;1.38;;
48199;SDS011;33990;44.602;10.976;2022-08-19T13:26:14;2.72;;;1.20;;
48199;SDS011;33990;44.602;10.976;2022-08-19T13:28:43;2.13;;;1.10;;
48199;SDS011;33990;44.602;10.976;2022-08-19T13:31:31;2.65;;;1.08;;
48199;SDS011;33990;44.602;10.976;2022-08-19T13:34:26;2.45;;;1.23;;
48199;SDS011;33990;44.602;10.976;2022-08-19T13:36:57;3.00;;;1.40;;
48199;SDS011;33990;44.602;10.976;2022-08-19T13:39:25;2.17;;;1.38;;
48199;SDS011;33990;44.602;10.976;2022-08-19T13:41:54;1.92;;;1.10;;
48199;SDS011;33990;44.602;10.976;2022-08-19T13:44:21;1.55;;;1.25;;
48199;SDS011;33990;44.602;10.976;2022-08-19T13:46:49;1.92;;;1.17;;
48199;SDS011;33990;44.602;10.976;2022-08-19T13:49:20;1.25;;;0.90;;
48199;SDS011;33990;44.602;10.976;2022-08-19T13:51:52;2.88;;;1.20;;
48199;SDS011;33990;44.602;10.976;2022-08-19T13:54:20;2.10;;;1.20;;
48199;SDS011;33990;44.602;10.976;2022-08-19T13:56:47;2.58;;;1.10;;
48199;SDS011;33990;44.602;10.976;2022-08-19T13:59:14;1.75;;;0.93;;
48199;SDS011;33990;44.602;10.976;2022-08-19T14:01:42;1.60;;;0.93;;
48199;SDS011;33990;44.602;10.976;2022-08-19T14:04:10;2.72;;;1.27;;
48199;SDS011;33990;44.602;10.976;2022-08-19T14:06:37;1.80;;;1.02;;
48199;SDS011;33990;44.602;10.976;2022-08-19T14:09:04;2.50;;;1.40;;
48199;SDS011;33990;44.602;10.976;2022-08-19T14:11:32;1.42;;;0.90;;
48199;SDS011;33990;44.602;10.976;2022-08-19T14:13:59;1.73;;;1.35;;
48199;SDS011;33990;44.602;10.976;2022-08-19T14:16:27;2.50;;;1.30;;
48199;SDS011;33990;44.602;10.976;2022-08-19T14:18:54;2.70;;;1.10;;
48199;SDS011;33990;44.602;10.976;2022-08-19T14:21:22;2.28;;;1.23;;
48199;SDS011;33990;44.602;10.976;2022-08-19T14:23:52;2.80;;;1.08;;
48199;SDS011;33990;44.602;10.976;2022-08-19T14:26:20;5.03;;;1.33;;
48199;SDS011;33990;44.602;10.976;2022-08-19T14:28:48;2.75;;;1.20;;
48199;SDS011;33990;44.602;10.976;2022-08-19T14:31:16;2.00;;;1.30;;
48199;SDS011;33990;44.602;10.976;2022-08-19T14:33:48;2.45;;;1.38;;
48199;SDS011;33990;44.602;10.976;2022-08-19T14:36:17;2.30;;;1.17;;
48199;SDS011;33990;44.602;10.976;2022-08-19T14:38:46;1.98;;;1.15;;
48199;SDS011;33990;44.602;10.976;2022-08-19T14:43:46;2.55;;;1.42;;
48199;SDS011;33990;44.602;10.976;2022-08-19T14:46:16;2.30;;;1.17;;
48199;SDS011;33990;44.602;10.976;2022-08-19T14:48:49;2.47;;;1.20;;
48199;SDS011;33990;44.602;10.976;2022-08-19T14:51:19;2.05;;;1.23;;
48199;SDS011;33990;44.602;10.976;2022-08-19T14:53:50;2.65;;;1.30;;
48199;SDS011;33990;44.602;10.976;2022-08-19T14:56:19;2.65;;;1.50;;
48199;SDS011;33990;44.602;10.976;2022-08-19T14:58:50;2.20;;;1.42;;
48199;SDS011;33990;44.602;10.976;2022-08-19T15:01:21;3.28;;;1.50;;
48199;SDS011;33990;44.602;10.976;2022-08-19T15:03:51;4.80;;;1.40;;
48199;SDS011;33990;44.602;10.976;2022-08-19T15:06:22;5.05;;;1.23;;
48199;SDS011;33990;44.602;10.976;2022-08-19T15:08:50;1.80;;;0.90;;
48199;SDS011;33990;44.602;10.976;2022-08-19T15:11:21;3.05;;;1.50;;
48199;SDS011;33990;44.602;10.976;2022-08-19T15:13:50;2.65;;;1.42;;
48199;SDS011;33990;44.602;10.976;2022-08-19T15:16:18;2.30;;;1.10;;